Time;durP1;ratioP1;P1;durP2;ratioP2;P2;SDS_P1;SDS_P2;PMS_P1;PMS_P2;Temp;Humidity;BMP_temperature;BMP_pressure;BME280_temperature;BME280_humidity;BME280_pressure;Samples;Min_cycle;Max_cycle;Signal;HPM_P1;HPM_P2
2023/07/05 00:01:46;;;;;;;3.07;2.43;;;;;;;;;;4981539;28;20318;-74
2023/07/05 00:04:12;;;;;;;2.87;2.57;;;;;;;;;;4976254;28;20486;-74
2023/07/05 00:06:37;;;;;;;2.30;2.10;;;;;;;;;;5000122;28;20281;-74
2023/07/05 00:09:02;;;;;;;2.47;2.27;;;;;;;;;;4986258;28;20214;-73
2023/07/05 00:11:27;;;;;;;2.73;1.80;;;;;;;;;;5004074;28;20210;-74
2023/07/05 00:13:53;;;;;;;2.43;2.10;;;;;;;;;;4987175;28;20284;-74
2023/07/05 00:16:19;;;;;;;3.50;2.17;;;;;;;;;;5006448;28;20188;-74
2023/07/05 00:18:44;;;;;;;3.07;2.30;;;;;;;;;;5005088;28;20212;-74
2023/07/05 00:21:09;;;;;;;2.20;2.00;;;;;;;;;;5002729;28;20184;-74
2023/07/05 00:23:35;;;;;;;2.17;1.97;;;;;;;;;;4986882;28;20179;-74
2023/07/05 00:26:01;;;;;;;3.67;2.27;;;;;;;;;;4985888;28;20179;-74
2023/07/05 00:28:26;;;;;;;3.27;2.07;;;;;;;;;;5006399;28;20183;-74
2023/07/05 00:30:52;;;;;;;3.63;1.80;;;;;;;;;;4985685;28;20275;-74
2023/07/05 00:33:17;;;;;;;2.13;1.93;;;;;;;;;;5004295;28;20268;-74
2023/07/05 00:35:49;;;;;;;2.80;2.00;;;;;;;;;;4998668;28;20224;-74
2023/07/05 00:38:15;;;;;;;3.10;2.03;;;;;;;;;;5003141;28;20216;-74
2023/07/05 00:40:40;;;;;;;2.03;1.83;;;;;;;;;;4993402;28;20179;-74
2023/07/05 00:43:06;;;;;;;1.83;1.63;;;;;;;;;;5003168;28;20183;-74
2023/07/05 00:45:42;;;;;;;3.50;2.30;;;;;;;;;;5000113;28;20171;-74
2023/07/05 00:48:11;;;;;;;5.17;2.27;;;;;;;;;;4999281;28;20188;-74
2023/07/05 00:50:38;;;;;;;2.67;2.00;;;;;;;;;;5013684;28;20290;-74
2023/07/05 00:53:04;;;;;;;2.10;1.90;;;;;;;;;;5000737;28;20197;-74
2023/07/05 00:55:29;;;;;;;3.57;1.93;;;;;;;;;;5003884;28;20185;-74
2023/07/05 00:57:55;;;;;;;2.47;1.77;;;;;;;;;;5002588;28;20206;-74
2023/07/05 01:00:21;;;;;;;3.40;2.10;;;;;;;;;;5014516;28;20174;-73
2023/07/05 01:02:48;;;;;;;2.07;1.73;;;;;;;;;;4985888;28;20260;-73
2023/07/05 01:05:17;;;;;;;2.87;2.13;;;;;;;;;;4979902;28;20217;-74
2023/07/05 01:07:42;;;;;;;2.00;1.90;;;;;;;;;;4986495;28;20190;-74
2023/07/05 01:10:15;;;;;;;3.63;2.20;;;;;;;;;;4985106;28;20183;-74
2023/07/05 01:12:46;;;;;;;2.00;1.90;;;;;;;;;;5002651;28;20198;-74
2023/07/05 01:15:14;;;;;;;3.30;2.00;;;;;;;;;;4972214;28;20227;-74
2023/07/05 01:17:39;;;;;;;3.00;2.00;;;;;;;;;;4997682;28;20211;-77
2023/07/05 01:20:19;;;;;;;3.90;2.13;;;;;;;;;;4993433;28;20175;-77
2023/07/05 01:22:47;;;;;;;3.23;2.13;;;;;;;;;;4997690;28;20183;-77
2023/07/05 01:25:24;;;;;;;3.87;2.20;;;;;;;;;;4983454;28;20210;-77
2023/07/05 01:27:54;;;;;;;2.53;1.80;;;;;;;;;;4985705;28;20209;-77
2023/07/05 01:30:44;;;;;;;2.97;2.10;;;;;;;;;;4986327;28;20243;-77
2023/07/05 01:33:13;;;;;;;1.93;1.80;;;;;;;;;;5000102;28;20197;-77
2023/07/05 01:35:44;;;;;;;2.00;1.80;;;;;;;;;;5010327;28;20274;-77
2023/07/05 01:38:09;;;;;;;2.00;1.80;;;;;;;;;;4988531;28;20210;-77
2023/07/05 01:40:35;;;;;;;3.50;2.10;;;;;;;;;;4988505;28;20174;-77
2023/07/05 01:43:02;;;;;;;2.27;1.90;;;;;;;;;;5001322;28;20192;-77
2023/07/05 01:45:37;;;;;;;2.23;1.90;;;;;;;;;;4986381;28;20313;-77
2023/07/05 01:48:09;;;;;;;2.47;1.80;;;;;;;;;;4981857;28;20273;-77
2023/07/05 01:50:35;;;;;;;3.40;2.70;;;;;;;;;;4991618;28;20200;-74
2023/07/05 01:53:00;;;;;;;2.33;2.13;;;;;;;;;;4999208;28;20191;-74
2023/07/05 01:55:28;;;;;;;2.40;2.17;;;;;;;;;;4988154;28;20228;-74
2023/07/05 01:58:00;;;;;;;3.30;2.00;;;;;;;;;;4986298;28;20313;-74
2023/07/05 02:00:27;;;;;;;1.90;1.80;;;;;;;;;;5003947;28;20168;-74
2023/07/05 02:03:01;;;;;;;3.60;2.40;;;;;;;;;;5004710;28;20190;-74
2023/07/05 02:05:28;;;;;;;2.97;2.13;;;;;;;;;;5005344;28;20178;-75
2023/07/05 02:07:53;;;;;;;2.80;2.20;;;;;;;;;;4994597;28;20194;-75
2023/07/05 02:10:19;;;;;;;3.20;2.00;;;;;;;;;;5005706;28;20171;-75
2023/07/05 02:12:44;;;;;;;2.13;1.70;;;;;;;;;;4983912;28;20273;-77
2023/07/05 02:15:10;;;;;;;2.47;1.93;;;;;;;;;;5008574;28;20191;-77
2023/07/05 02:17:35;;;;;;;3.23;1.67;;;;;;;;;;4987332;28;20207;-77
2023/07/05 02:20:00;;;;;;;2.07;1.87;;;;;;;;;;4987461;28;20181;-77
2023/07/05 02:22:25;;;;;;;1.80;1.53;;;;;;;;;;4984661;28;20491;-77
2023/07/05 02:24:51;;;;;;;2.17;1.97;;;;;;;;;;4986176;28;20189;-77
2023/07/05 02:27:17;;;;;;;1.80;1.63;;;;;;;;;;5005008;28;20232;-77
2023/07/05 02:29:42;;;;;;;2.33;1.90;;;;;;;;;;4985657;28;20191;-77
2023/07/05 02:32:08;;;;;;;1.70;1.60;;;;;;;;;;4985819;28;20200;-77
2023/07/05 02:34:33;;;;;;;3.03;2.00;;;;;;;;;;5001721;28;20202;-77
2023/07/05 02:36:58;;;;;;;2.53;1.90;;;;;;;;;;5002420;28;20185;-77
2023/07/05 02:39:25;;;;;;;2.63;1.90;;;;;;;;;;4989462;28;20331;-77
2023/07/05 02:41:50;;;;;;;2.00;1.60;;;;;;;;;;4985536;28;20283;-77
2023/07/05 02:44:15;;;;;;;2.93;2.20;;;;;;;;;;4984943;28;20258;-77
2023/07/05 02:46:41;;;;;;;1.97;1.53;;;;;;;;;;4998775;28;20285;-77
2023/07/05 02:49:06;;;;;;;2.20;2.00;;;;;;;;;;5001633;28;20180;-77
2023/07/05 02:51:34;;;;;;;2.40;1.97;;;;;;;;;;5007687;28;20203;-77
2023/07/05 02:53:59;;;;;;;1.97;1.80;;;;;;;;;;4975692;28;20235;-77
2023/07/05 02:56:24;;;;;;;1.73;1.63;;;;;;;;;;4962859;28;20209;-77
2023/07/05 02:58:50;;;;;;;1.50;1.40;;;;;;;;;;4963210;28;20219;-77
2023/07/05 03:01:15;;;;;;;1.67;1.57;;;;;;;;;;4973427;28;20187;-77
2023/07/05 03:03:40;;;;;;;3.80;2.40;;;;;;;;;;4967238;28;20191;-77
2023/07/05 03:06:05;;;;;;;2.10;1.90;;;;;;;;;;4959391;28;20187;-77
2023/07/05 03:08:31;;;;;;;1.77;1.67;;;;;;;;;;4973136;28;20217;-77
2023/07/05 03:10:56;;;;;;;3.20;1.97;;;;;;;;;;4958856;28;20195;-77
2023/07/05 03:13:22;;;;;;;2.57;1.80;;;;;;;;;;4963999;28;20233;-77
2023/07/05 03:15:48;;;;;;;2.27;2.00;;;;;;;;;;4982769;28;20210;-77
2023/07/05 03:18:13;;;;;;;2.23;2.00;;;;;;;;;;4966244;28;20222;-77
2023/07/05 03:20:39;;;;;;;2.30;2.10;;;;;;;;;;4982864;28;20178;-77
2023/07/05 03:23:04;;;;;;;3.87;2.63;;;;;;;;;;4979125;28;20229;-77
2023/07/05 03:25:29;;;;;;;2.30;2.10;;;;;;;;;;4966354;28;20253;-77
2023/07/05 03:27:54;;;;;;;2.53;1.97;;;;;;;;;;4978831;28;20184;-75
2023/07/05 03:30:20;;;;;;;3.43;2.07;;;;;;;;;;4962503;28;20185;-75
2023/07/05 03:32:45;;;;;;;1.80;1.70;;;;;;;;;;4959927;28;20277;-75
2023/07/05 03:35:10;;;;;;;2.80;2.10;;;;;;;;;;4965856;28;20195;-75
2023/07/05 03:37:36;;;;;;;2.30;2.10;;;;;;;;;;4982377;28;20197;-75
2023/07/05 03:40:01;;;;;;;2.17;1.97;;;;;;;;;;4978955;28;20286;-75
2023/07/05 03:42:26;;;;;;;2.40;2.13;;;;;;;;;;4971468;28;20228;-75
2023/07/05 03:44:51;;;;;;;2.20;2.00;;;;;;;;;;4981285;28;20187;-75
2023/07/05 03:47:16;;;;;;;2.60;1.63;;;;;;;;;;4977689;28;20174;-75
2023/07/05 03:49:42;;;;;;;2.00;1.90;;;;;;;;;;4963571;28;20215;-75
2023/07/05 03:52:07;;;;;;;2.40;2.00;;;;;;;;;;4980888;28;20193;-75
2023/07/05 03:54:32;;;;;;;3.30;1.87;;;;;;;;;;4995488;28;20233;-75
2023/07/05 03:56:57;;;;;;;2.23;1.97;;;;;;;;;;4978798;28;20216;-75
2023/07/05 03:59:22;;;;;;;2.47;1.87;;;;;;;;;;4999586;28;20353;-74
2023/07/05 04:01:48;;;;;;;2.27;2.00;;;;;;;;;;4981162;28;20249;-74
2023/07/05 04:04:13;;;;;;;2.00;1.80;;;;;;;;;;4980290;28;20186;-74
2023/07/05 04:06:38;;;;;;;3.27;2.00;;;;;;;;;;4978777;28;20225;-74
2023/07/05 04:09:03;;;;;;;2.70;1.73;;;;;;;;;;4986774;28;20195;-74
2023/07/05 04:11:29;;;;;;;2.07;1.90;;;;;;;;;;5002695;28;20178;-76
2023/07/05 04:13:55;;;;;;;3.20;2.30;;;;;;;;;;5007088;28;20245;-75
2023/07/05 04:16:21;;;;;;;36.07;5.30;;;;;;;;;;4985816;28;20272;-75
2023/07/05 04:18:49;;;;;;;2.53;2.10;;;;;;;;;;4999980;28;20205;-75
2023/07/05 04:21:15;;;;;;;2.80;1.60;;;;;;;;;;5002090;28;20183;-75
2023/07/05 04:23:40;;;;;;;2.47;1.93;;;;;;;;;;4981391;28;20187;-75
2023/07/05 04:26:09;;;;;;;2.03;1.83;;;;;;;;;;4998737;28;20182;-75
2023/07/05 04:28:35;;;;;;;2.23;1.83;;;;;;;;;;5004227;28;20208;-75
2023/07/05 04:31:01;;;;;;;3.57;3.00;;;;;;;;;;5001511;28;20188;-75
2023/07/05 04:33:26;;;;;;;3.80;3.50;;;;;;;;;;5000365;28;20186;-75
2023/07/05 04:35:57;;;;;;;2.37;1.90;;;;;;;;;;4987877;28;20197;-75
2023/07/05 04:38:23;;;;;;;3.53;2.00;;;;;;;;;;4987170;28;20209;-75
2023/07/05 04:40:48;;;;;;;16.20;2.80;;;;;;;;;;4979968;28;20186;-76
2023/07/05 04:43:13;;;;;;;2.33;2.13;;;;;;;;;;5009145;28;20231;-75
2023/07/05 04:45:39;;;;;;;2.43;2.20;;;;;;;;;;4999523;28;20206;-75
2023/07/05 04:48:04;;;;;;;3.10;2.27;;;;;;;;;;5007220;28;20177;-75
2023/07/05 04:50:29;;;;;;;4.17;2.37;;;;;;;;;;4999254;28;20206;-75
2023/07/05 04:52:55;;;;;;;3.60;3.30;;;;;;;;;;5001281;28;20189;-75
2023/07/05 04:55:20;;;;;;;2.20;2.00;;;;;;;;;;4982267;28;20218;-75
2023/07/05 04:57:45;;;;;;;3.07;2.27;;;;;;;;;;4981996;28;20227;-73
2023/07/05 05:00:11;;;;;;;2.70;2.03;;;;;;;;;;4976000;28;20185;-75
2023/07/05 05:02:37;;;;;;;3.43;3.13;;;;;;;;;;4985742;28;20166;-75
2023/07/05 05:05:03;;;;;;;2.27;2.07;;;;;;;;;;4992463;28;20194;-75
2023/07/05 05:07:28;;;;;;;9.93;2.67;;;;;;;;;;4990747;28;20266;-75
2023/07/05 05:09:53;;;;;;;2.90;2.70;;;;;;;;;;4985993;28;20190;-75
2023/07/05 05:12:18;;;;;;;2.57;2.37;;;;;;;;;;4996784;28;20193;-75
2023/07/05 05:14:44;;;;;;;13.03;3.43;;;;;;;;;;4983217;28;20186;-75
2023/07/05 05:17:09;;;;;;;4.90;2.60;;;;;;;;;;5002669;28;20198;-75
2023/07/05 05:19:34;;;;;;;8.17;2.73;;;;;;;;;;4985811;28;20245;-75
2023/07/05 05:21:59;;;;;;;13.90;3.13;;;;;;;;;;5005383;28;20182;-75
2023/07/05 05:24:24;;;;;;;3.90;2.93;;;;;;;;;;5016360;28;20187;-75
2023/07/05 05:26:50;;;;;;;4.37;2.60;;;;;;;;;;5002685;28;20265;-75
2023/07/05 05:29:15;;;;;;;6.63;3.27;;;;;;;;;;4987280;28;20225;-75
2023/07/05 05:31:40;;;;;;;33.37;8.47;;;;;;;;;;5023015;28;20210;-75
2023/07/05 05:34:05;;;;;;;4.57;2.43;;;;;;;;;;4983488;28;20193;-75
2023/07/05 05:36:31;;;;;;;2.17;1.87;;;;;;;;;;4988839;28;20256;-75
2023/07/05 05:38:56;;;;;;;5.07;2.07;;;;;;;;;;5001254;28;20248;-75
2023/07/05 05:41:21;;;;;;;3.83;1.80;;;;;;;;;;4979167;28;20185;-75
2023/07/05 05:43:46;;;;;;;2.53;1.80;;;;;;;;;;5000318;28;20222;-75
2023/07/05 05:46:11;;;;;;;4.87;1.90;;;;;;;;;;5006335;28;20174;-75
2023/07/05 05:48:37;;;;;;;2.53;1.40;;;;;;;;;;5003437;28;20187;-75
2023/07/05 05:51:02;;;;;;;1.80;1.50;;;;;;;;;;4986189;28;20312;-75
2023/07/05 05:53:27;;;;;;;2.40;1.67;;;;;;;;;;5001463;28;20261;-75
2023/07/05 05:55:56;;;;;;;2.13;1.63;;;;;;;;;;5006760;28;20187;-75
2023/07/05 05:58:22;;;;;;;5.00;1.90;;;;;;;;;;5006656;28;20206;-75
2023/07/05 06:00:47;;;;;;;1.70;1.50;;;;;;;;;;5008150;28;20243;-75
2023/07/05 06:03:13;;;;;;;3.17;2.10;;;;;;;;;;5003340;28;20277;-75
2023/07/05 06:05:38;;;;;;;1.97;1.57;;;;;;;;;;5011936;28;20178;-74
2023/07/05 06:08:03;;;;;;;2.67;1.47;;;;;;;;;;5004007;28;20167;-76
2023/07/05 06:10:29;;;;;;;2.47;1.83;;;;;;;;;;4990306;28;20173;-76
2023/07/05 06:12:54;;;;;;;2.43;2.00;;;;;;;;;;4999231;28;20177;-76
2023/07/05 06:15:19;;;;;;;2.50;1.73;;;;;;;;;;4990866;28;20209;-76
2023/07/05 06:17:44;;;;;;;2.10;1.90;;;;;;;;;;4985749;28;20204;-76
2023/07/05 06:20:14;;;;;;;2.33;1.70;;;;;;;;;;5002712;28;20339;-76
2023/07/05 06:22:39;;;;;;;2.40;1.97;;;;;;;;;;4998166;28;20272;-76
2023/07/05 06:25:05;;;;;;;2.17;1.80;;;;;;;;;;4988144;28;20196;-76
2023/07/05 06:27:30;;;;;;;2.37;1.70;;;;;;;;;;5005112;28;20196;-76
2023/07/05 06:29:55;;;;;;;1.40;1.30;;;;;;;;;;5001321;28;20214;-76
2023/07/05 06:32:21;;;;;;;1.70;1.60;;;;;;;;;;4983192;28;20183;-76
2023/07/05 06:34:46;;;;;;;2.43;1.70;;;;;;;;;;4984907;28;20180;-76
2023/07/05 06:37:11;;;;;;;1.83;1.70;;;;;;;;;;4981033;28;20176;-76
2023/07/05 06:39:37;;;;;;;2.37;1.83;;;;;;;;;;4980184;28;20218;-76
2023/07/05 06:42:02;;;;;;;1.80;1.67;;;;;;;;;;4985363;28;20182;-76
2023/07/05 06:44:27;;;;;;;2.60;1.60;;;;;;;;;;4981885;28;20222;-76
2023/07/05 06:46:52;;;;;;;3.10;1.60;;;;;;;;;;4999702;28;20258;-76
2023/07/05 06:49:18;;;;;;;2.13;1.90;;;;;;;;;;5001833;28;20175;-75
2023/07/05 06:51:43;;;;;;;2.07;1.87;;;;;;;;;;5002087;28;20195;-75
2023/07/05 06:54:08;;;;;;;1.97;1.80;;;;;;;;;;4999174;28;20233;-75
2023/07/05 06:56:36;;;;;;;2.20;2.00;;;;;;;;;;5003562;28;20179;-75
2023/07/05 06:59:01;;;;;;;1.47;1.33;;;;;;;;;;4988262;28;20208;-75
2023/07/05 07:01:27;;;;;;;2.10;1.90;;;;;;;;;;4978396;28;20184;-75
2023/07/05 07:03:52;;;;;;;1.87;1.43;;;;;;;;;;4985925;28;20180;-75
2023/07/05 07:06:17;;;;;;;2.03;1.87;;;;;;;;;;4985734;28;20235;-76
2023/07/05 07:08:42;;;;;;;1.63;1.53;;;;;;;;;;4984703;28;20263;-75
2023/07/05 07:11:09;;;;;;;1.50;1.40;;;;;;;;;;4974629;28;20206;-75
2023/07/05 07:13:34;;;;;;;1.40;1.30;;;;;;;;;;4993383;28;20186;-75
2023/07/05 07:16:04;;;;;;;1.47;1.37;;;;;;;;;;4986627;28;20187;-76
2023/07/05 07:18:29;;;;;;;1.77;1.67;;;;;;;;;;4993960;28;20205;-75
2023/07/05 07:20:54;;;;;;;1.50;1.40;;;;;;;;;;4983660;28;20176;-75
2023/07/05 07:23:20;;;;;;;1.30;1.20;;;;;;;;;;4984031;28;20189;-76
2023/07/05 07:25:45;;;;;;;2.27;1.53;;;;;;;;;;5010506;28;20171;-76
2023/07/05 07:28:10;;;;;;;1.80;1.67;;;;;;;;;;4995338;28;20180;-76
2023/07/05 07:30:36;;;;;;;1.83;1.63;;;;;;;;;;4978068;28;20238;-75
2023/07/05 07:33:01;;;;;;;2.40;2.20;;;;;;;;;;4999647;28;20229;-75
2023/07/05 07:35:26;;;;;;;2.20;1.93;;;;;;;;;;4998161;28;20205;-75
2023/07/05 07:37:51;;;;;;;1.63;1.53;;;;;;;;;;4984139;28;20231;-75
2023/07/05 07:40:16;;;;;;;2.93;2.20;;;;;;;;;;4994393;28;20172;-75
2023/07/05 07:42:42;;;;;;;2.43;2.23;;;;;;;;;;5000072;28;20300;-75
2023/07/05 07:45:07;;;;;;;2.60;2.40;;;;;;;;;;5006649;28;20183;-75
2023/07/05 07:47:32;;;;;;;3.33;2.70;;;;;;;;;;4981241;28;20305;-75
2023/07/05 07:49:58;;;;;;;2.87;2.57;;;;;;;;;;4977307;28;20204;-75
2023/07/05 07:52:23;;;;;;;2.50;2.30;;;;;;;;;;4998705;28;20177;-75
2023/07/05 07:54:48;;;;;;;3.67;2.30;;;;;;;;;;4988668;28;20242;-75
2023/07/05 07:57:13;;;;;;;2.93;2.73;;;;;;;;;;4984458;28;20177;-75
2023/07/05 07:59:41;;;;;;;2.93;2.73;;;;;;;;;;4984657;28;20295;-75
2023/07/05 08:02:10;;;;;;;4.17;3.30;;;;;;;;;;4979050;28;20186;-75
2023/07/05 08:04:38;;;;;;;6.03;4.07;;;;;;;;;;4983756;28;20168;-75
2023/07/05 08:07:04;;;;;;;3.90;3.50;;;;;;;;;;5002369;28;20176;-75
2023/07/05 08:09:29;;;;;;;5.27;4.00;;;;;;;;;;4979390;28;20180;-75
2023/07/05 08:11:55;;;;;;;4.47;4.03;;;;;;;;;;4988418;28;20177;-75
2023/07/05 08:14:20;;;;;;;3.90;3.60;;;;;;;;;;4996702;28;20188;-75
2023/07/05 08:16:46;;;;;;;3.67;3.37;;;;;;;;;;4980365;28;20193;-75
2023/07/05 08:19:12;;;;;;;4.13;3.37;;;;;;;;;;4980961;28;20255;-75
2023/07/05 08:21:37;;;;;;;3.97;3.57;;;;;;;;;;4984418;28;20214;-75
2023/07/05 08:24:03;;;;;;;3.70;3.40;;;;;;;;;;4984280;28;20187;-76
2023/07/05 08:26:28;;;;;;;5.00;4.03;;;;;;;;;;5004742;28;20184;-76
2023/07/05 08:28:53;;;;;;;3.87;3.57;;;;;;;;;;5002313;28;20183;-76
2023/07/05 08:31:18;;;;;;;4.93;3.50;;;;;;;;;;4984551;28;20183;-76
2023/07/05 08:33:44;;;;;;;3.37;3.07;;;;;;;;;;5000547;28;20206;-76
2023/07/05 08:36:10;;;;;;;5.10;3.13;;;;;;;;;;4986141;28;20176;-77
2023/07/05 08:38:39;;;;;;;3.80;3.10;;;;;;;;;;5005733;28;20200;-76
2023/07/05 08:41:22;;;;;;;4.10;3.70;;;;;;;;;;4982820;28;20215;-76
2023/07/05 08:43:52;;;;;;;4.10;3.70;;;;;;;;;;5002982;28;20182;-76
2023/07/05 08:46:18;;;;;;;3.87;3.50;;;;;;;;;;4987559;28;20181;-76
2023/07/05 08:48:44;;;;;;;3.90;3.50;;;;;;;;;;5003667;28;20193;-76
2023/07/05 08:51:11;;;;;;;4.57;3.70;;;;;;;;;;4985171;28;20212;-76
2023/07/05 08:53:42;;;;;;;6.53;3.67;;;;;;;;;;4980396;28;20324;-76
2023/07/05 08:56:13;;;;;;;7.27;3.90;;;;;;;;;;4976463;28;20173;-76
2023/07/05 08:58:40;;;;;;;5.87;4.07;;;;;;;;;;4985491;28;20201;-76
2023/07/05 09:01:09;;;;;;;5.80;4.30;;;;;;;;;;4985546;28;20222;-76
2023/07/05 09:03:34;;;;;;;5.97;4.10;;;;;;;;;;4985233;28;20182;-76
2023/07/05 09:06:03;;;;;;;12.67;6.43;;;;;;;;;;4984729;28;20265;-76
2023/07/05 09:08:28;;;;;;;4.30;3.90;;;;;;;;;;4963101;28;20191;-74
2023/07/05 09:11:03;;;;;;;5.43;3.83;;;;;;;;;;4964107;28;20191;-74
2023/07/05 09:13:38;;;;;;;4.17;3.70;;;;;;;;;;4967225;28;20189;-74
2023/07/05 09:16:27;;;;;;;3.97;3.57;;;;;;;;;;4957559;28;20192;-74
2023/07/05 09:18:52;;;;;;;4.73;4.23;;;;;;;;;;4983577;28;20302;-74
2023/07/05 09:21:20;;;;;;;13.50;6.40;;;;;;;;;;4985618;28;20271;-74
2023/07/05 09:23:52;;;;;;;5.53;4.60;;;;;;;;;;4970906;28;20214;-74
2023/07/05 09:26:26;;;;;;;4.20;3.80;;;;;;;;;;4961040;28;20175;-74
2023/07/05 09:29:18;;;;;;;4.57;4.17;;;;;;;;;;4981345;28;20242;-74
2023/07/05 09:31:44;;;;;;;5.33;4.13;;;;;;;;;;4961907;28;20265;-74
2023/07/05 09:34:28;;;;;;;6.10;4.47;;;;;;;;;;4978400;28;20194;-74
2023/07/05 09:36:53;;;;;;;6.10;4.77;;;;;;;;;;4966545;28;20184;-74
2023/07/05 09:39:18;;;;;;;7.00;4.50;;;;;;;;;;4951009;28;20210;-74
2023/07/05 09:41:49;;;;;;;5.23;4.37;;;;;;;;;;4959737;28;20197;-74
2023/07/05 09:44:16;;;;;;;4.13;3.80;;;;;;;;;;4965945;28;20189;-74
2023/07/05 09:46:43;;;;;;;4.77;4.27;;;;;;;;;;4967352;28;20187;-73
2023/07/05 09:49:15;;;;;;;6.23;4.17;;;;;;;;;;4967051;28;20301;-74
2023/07/05 09:51:44;;;;;;;4.97;3.93;;;;;;;;;;4973284;28;20195;-74
2023/07/05 09:54:11;;;;;;;5.10;4.60;;;;;;;;;;4990863;28;20227;-74
2023/07/05 09:56:56;;;;;;;5.30;3.97;;;;;;;;;;4998296;28;20183;-74
2023/07/05 09:59:21;;;;;;;5.00;4.23;;;;;;;;;;4999901;28;20291;-74
2023/07/05 10:01:53;;;;;;;5.00;3.47;;;;;;;;;;4979879;28;20266;-74
2023/07/05 10:04:20;;;;;;;4.07;3.67;;;;;;;;;;4980489;28;20205;-74
2023/07/05 10:06:46;;;;;;;4.57;3.43;;;;;;;;;;4982254;28;20201;-74
2023/07/05 10:09:19;;;;;;;4.03;3.63;;;;;;;;;;4982839;28;20184;-74
2023/07/05 10:11:49;;;;;;;3.73;3.33;;;;;;;;;;4982483;28;20277;-74
2023/07/05 10:14:19;;;;;;;8.77;4.50;;;;;;;;;;4984819;28;20177;-74
2023/07/05 10:16:49;;;;;;;3.97;3.33;;;;;;;;;;4998670;28;20173;-74
2023/07/05 10:19:22;;;;;;;4.50;3.03;;;;;;;;;;4980703;28;20205;-74
2023/07/05 10:22:06;;;;;;;5.43;3.70;;;;;;;;;;5000093;28;20181;-74
2023/07/05 10:24:32;;;;;;;4.10;2.70;;;;;;;;;;4983178;28;20198;-73
2023/07/05 10:27:02;;;;;;;4.37;3.47;;;;;;;;;;4981470;28;20209;-74
2023/07/05 10:29:28;;;;;;;3.60;3.10;;;;;;;;;;4985450;28;20185;-74
2023/07/05 10:31:54;;;;;;;5.10;3.20;;;;;;;;;;5012870;28;20215;-74
2023/07/05 10:34:21;;;;;;;3.30;3.00;;;;;;;;;;4998853;28;20190;-74
2023/07/05 10:36:48;;;;;;;4.20;3.30;;;;;;;;;;5002011;28;20190;-74
2023/07/05 10:39:16;;;;;;;3.50;3.20;;;;;;;;;;4997418;28;20287;-74
2023/07/05 10:41:42;;;;;;;4.70;3.50;;;;;;;;;;4996857;28;20261;-74
2023/07/05 10:44:13;;;;;;;3.33;2.90;;;;;;;;;;4979060;28;20278;-74
2023/07/05 10:46:38;;;;;;;5.07;3.77;;;;;;;;;;4993346;28;20232;-74
2023/07/05 10:49:09;;;;;;;3.57;2.60;;;;;;;;;;5004307;28;20180;-73
2023/07/05 10:51:36;;;;;;;5.87;2.97;;;;;;;;;;4977161;28;20202;-74
2023/07/05 10:54:20;;;;;;;3.77;3.20;;;;;;;;;;4999545;28;20250;-74
2023/07/05 10:56:45;;;;;;;3.23;2.83;;;;;;;;;;4982738;28;20181;-74
2023/07/05 10:59:13;;;;;;;5.07;3.07;;;;;;;;;;4985548;28;20221;-74
2023/07/05 11:01:48;;;;;;;3.50;3.20;;;;;;;;;;4982400;28;20259;-74
2023/07/05 11:04:18;;;;;;;3.17;2.70;;;;;;;;;;4986306;28;20179;-74
2023/07/05 11:06:44;;;;;;;5.57;2.83;;;;;;;;;;4986838;28;20213;-74
2023/07/05 11:09:10;;;;;;;10.03;3.00;;;;;;;;;;4977966;28;20178;-74
2023/07/05 11:11:40;;;;;;;3.80;3.10;;;;;;;;;;4994768;28;20189;-74
2023/07/05 11:14:12;;;;;;;2.97;2.67;;;;;;;;;;4993030;28;20187;-74
2023/07/05 11:16:39;;;;;;;2.77;2.50;;;;;;;;;;4980662;28;20184;-74
2023/07/05 11:19:11;;;;;;;11.20;3.60;;;;;;;;;;4999676;28;20200;-74
2023/07/05 11:21:57;;;;;;;3.33;2.70;;;;;;;;;;4997668;28;20180;-74
2023/07/05 11:24:38;;;;;;;4.70;3.20;;;;;;;;;;4984691;28;20284;-73
2023/07/05 11:27:22;;;;;;;7.60;2.60;;;;;;;;;;4976835;28;20188;-74
2023/07/05 11:29:47;;;;;;;4.70;2.57;;;;;;;;;;4991524;28;20185;-74
2023/07/05 11:32:13;;;;;;;4.83;2.83;;;;;;;;;;4998655;28;20200;-74
2023/07/05 11:34:42;;;;;;;5.97;5.47;;;;;;;;;;4980854;28;20183;-74
2023/07/05 11:37:07;;;;;;;3.17;2.87;;;;;;;;;;4981002;28;20184;-74
2023/07/05 11:39:33;;;;;;;3.13;2.87;;;;;;;;;;4983569;28;20259;-73
2023/07/05 11:42:14;;;;;;;3.07;2.50;;;;;;;;;;4996620;28;20289;-72
2023/07/05 11:44:46;;;;;;;10.77;3.83;;;;;;;;;;5006124;28;20252;-72
2023/07/05 11:47:23;;;;;;;6.80;3.00;;;;;;;;;;5000033;28;20219;-72
2023/07/05 11:49:59;;;;;;;3.87;3.47;;;;;;;;;;4980331;28;20246;-72
2023/07/05 11:52:25;;;;;;;4.23;2.67;;;;;;;;;;4986630;28;20226;-72
2023/07/05 11:54:53;;;;;;;5.47;2.63;;;;;;;;;;5008299;28;20235;-73
2023/07/05 11:57:19;;;;;;;2.50;2.30;;;;;;;;;;4976862;28;20184;-72
2023/07/05 12:00:05;;;;;;;2.60;2.40;;;;;;;;;;5006147;28;20217;-72
2023/07/05 12:02:49;;;;;;;2.93;2.50;;;;;;;;;;4969328;28;20220;-73
2023/07/05 12:05:17;;;;;;;4.37;2.63;;;;;;;;;;4997085;28;20234;-73
2023/07/05 12:07:43;;;;;;;3.30;2.97;;;;;;;;;;4995969;28;20233;-72
2023/07/05 12:10:13;;;;;;;3.13;2.40;;;;;;;;;;5000019;28;20178;-73
2023/07/05 12:12:39;;;;;;;3.27;2.80;;;;;;;;;;5000730;28;20178;-73
2023/07/05 12:15:04;;;;;;;2.63;2.30;;;;;;;;;;5002407;28;20189;-73
2023/07/05 12:17:30;;;;;;;3.60;2.80;;;;;;;;;;4981398;28;20248;-72
2023/07/05 12:19:56;;;;;;;2.77;2.53;;;;;;;;;;4990265;28;20353;-72
2023/07/05 12:22:25;;;;;;;4.20;2.37;;;;;;;;;;5010493;28;20175;-73
2023/07/05 12:24:51;;;;;;;3.73;2.27;;;;;;;;;;5002647;28;20182;-73
2023/07/05 12:27:22;;;;;;;2.47;2.27;;;;;;;;;;4993647;28;20176;-72
2023/07/05 12:29:49;;;;;;;3.17;2.50;;;;;;;;;;4998840;28;20195;-72
2023/07/05 12:32:17;;;;;;;2.70;2.43;;;;;;;;;;4985261;28;20187;-72
2023/07/05 12:34:42;;;;;;;3.43;2.53;;;;;;;;;;4985311;28;20291;-72
2023/07/05 12:37:08;;;;;;;4.90;3.00;;;;;;;;;;4982536;28;20217;-72
2023/07/05 12:39:33;;;;;;;4.33;2.53;;;;;;;;;;5007940;28;20293;-73
2023/07/05 12:42:05;;;;;;;2.20;2.00;;;;;;;;;;5002900;28;20277;-73
2023/07/05 12:44:33;;;;;;;4.90;3.05;;;;;;;;;;5002394;28;20206;-73
2023/07/05 12:47:14;;;;;;;3.77;2.67;;;;;;;;;;4997158;28;20179;-73
2023/07/05 12:49:40;;;;;;;2.27;2.07;;;;;;;;;;4986945;28;20262;-72
2023/07/05 12:52:15;;;;;;;2.30;2.10;;;;;;;;;;4996675;28;20225;-73
2023/07/05 12:54:40;;;;;;;3.30;2.33;;;;;;;;;;4978863;28;20227;-72
2023/07/05 12:57:16;;;;;;;2.75;1.83;;;;;;;;;;5002820;28;20186;-73
2023/07/05 12:59:41;;;;;;;2.83;2.53;;;;;;;;;;4996325;28;20206;-73
2023/07/05 13:02:12;;;;;;;2.70;2.50;;;;;;;;;;4983844;28;20194;-73
2023/07/05 13:04:43;;;;;;;2.77;2.20;;;;;;;;;;5005084;28;20238;-72
2023/07/05 13:07:13;;;;;;;3.30;2.30;;;;;;;;;;4984931;28;20188;-72
2023/07/05 13:09:39;;;;;;;4.65;2.10;;;;;;;;;;5005090;28;20190;-72
2023/07/05 13:12:05;;;;;;;3.42;2.35;;;;;;;;;;5002314;28;20182;-73
2023/07/05 13:14:32;;;;;;;2.87;2.03;;;;;;;;;;4999255;28;20191;-73
2023/07/05 13:16:58;;;;;;;4.63;2.40;;;;;;;;;;5005559;28;20187;-73
2023/07/05 13:19:39;;;;;;;2.38;2.17;;;;;;;;;;4985487;28;20207;-73
2023/07/05 13:22:16;;;;;;;3.42;2.13;;;;;;;;;;4988307;28;20302;-73
2023/07/05 13:24:46;;;;;;;2.05;1.83;;;;;;;;;;4993106;28;20176;-73
2023/07/05 13:27:13;;;;;;;4.95;2.80;;;;;;;;;;4989770;28;20191;-72
2023/07/05 13:29:40;;;;;;;21.48;4.45;;;;;;;;;;5005079;28;20207;-73
2023/07/05 13:32:05;;;;;;;2.63;2.42;;;;;;;;;;4987403;28;20188;-75
2023/07/05 13:34:34;;;;;;;4.18;2.45;;;;;;;;;;5009862;28;20240;-73
2023/07/05 13:37:00;;;;;;;2.45;2.25;;;;;;;;;;4992787;28;20302;-73
2023/07/05 13:39:26;;;;;;;5.32;3.03;;;;;;;;;;4991642;28;20213;-73
2023/07/05 13:41:52;;;;;;;4.10;2.25;;;;;;;;;;4999858;28;20176;-72
2023/07/05 13:44:18;;;;;;;2.63;2.17;;;;;;;;;;4981623;28;20180;-72
2023/07/05 13:46:44;;;;;;;3.55;2.25;;;;;;;;;;4989231;28;20242;-72
2023/07/05 13:49:12;;;;;;;3.85;2.17;;;;;;;;;;5004062;28;20191;-73
2023/07/05 13:51:45;;;;;;;2.67;2.15;;;;;;;;;;5003630;28;20179;-73
2023/07/05 13:54:11;;;;;;;3.80;2.78;;;;;;;;;;4987397;28;20230;-74
2023/07/05 13:56:36;;;;;;;3.53;2.10;;;;;;;;;;4989004;28;20229;-73
2023/07/05 13:59:03;;;;;;;6.97;2.43;;;;;;;;;;4986922;28;20203;-73
2023/07/05 14:01:29;;;;;;;4.47;2.30;;;;;;;;;;5004730;28;20172;-74
2023/07/05 14:03:55;;;;;;;3.10;1.83;;;;;;;;;;5002898;28;20171;-74
2023/07/05 14:06:23;;;;;;;2.37;2.17;;;;;;;;;;5002318;28;20213;-73
2023/07/05 14:08:48;;;;;;;2.78;2.47;;;;;;;;;;4997975;28;20211;-72
2023/07/05 14:11:27;;;;;;;5.15;2.22;;;;;;;;;;4995518;28;20203;-72
2023/07/05 14:13:53;;;;;;;3.00;2.27;;;;;;;;;;5005905;28;20201;-72
2023/07/05 14:16:19;;;;;;;6.83;2.50;;;;;;;;;;4999241;28;20190;-73
2023/07/05 14:18:45;;;;;;;5.28;2.63;;;;;;;;;;4991784;28;20226;-72
2023/07/05 14:21:30;;;;;;;2.77;2.10;;;;;;;;;;5010322;28;20214;-72
2023/07/05 14:23:55;;;;;;;2.88;2.63;;;;;;;;;;5002441;28;20213;-72
2023/07/05 14:26:21;;;;;;;2.38;2.05;;;;;;;;;;4986105;28;20211;-73
2023/07/05 14:28:46;;;;;;;2.47;2.08;;;;;;;;;;5003121;28;20184;-72
2023/07/05 14:31:12;;;;;;;2.17;1.98;;;;;;;;;;5012475;28;20182;-72
2023/07/05 14:33:38;;;;;;;2.20;2.00;;;;;;;;;;4987852;28;20194;-72
2023/07/05 14:36:03;;;;;;;3.63;2.72;;;;;;;;;;4988677;28;20191;-72
2023/07/05 14:38:28;;;;;;;2.33;2.13;;;;;;;;;;5012881;28;20195;-72
2023/07/05 14:40:53;;;;;;;2.20;2.00;;;;;;;;;;5005664;28;20187;-72
2023/07/05 14:43:19;;;;;;;3.38;2.13;;;;;;;;;;5004341;28;20179;-72
2023/07/05 14:45:45;;;;;;;4.60;2.13;;;;;;;;;;4992109;28;20180;-73